Time;durP1;ratioP1;P1;durP2;ratioP2;P2;SDS_P1;SDS_P2;PMS_P1;PMS_P2;Temp;Humidity;BMP_temperature;BMP_pressure;BME280_temperature;BME280_humidity;BME280_pressure;Samples;Min_cycle;Max_cycle;Signal;HPM_P1;HPM_P2
2021/08/02 00:01:27;;;;;;;16.83;8.70;;;;;;;;;;5076487;28;20487;-57
2021/08/02 00:03:58;;;;;;;48.63;29.87;;;;;;;;;;5095932;28;20434;-53
2021/08/02 00:06:26;;;;;;;10.80;7.83;;;;;;;;;;5096235;28;20430;-55
2021/08/02 00:09:04;;;;;;;10.50;8.63;;;;;;;;;;5096414;28;20457;-54
2021/08/02 00:11:34;;;;;;;13.30;8.27;;;;;;;;;;5095780;28;20462;-55
2021/08/02 00:14:03;;;;;;;17.80;11.90;;;;;;;;;;5096455;28;20532;-56
2021/08/02 00:16:40;;;;;;;20.20;13.23;;;;;;;;;;5096086;28;20512;-58
2021/08/02 00:19:09;;;;;;;12.37;10.80;;;;;;;;;;5095822;28;20525;-56
2021/08/02 00:21:36;;;;;;;18.30;13.80;;;;;;;;;;5096558;28;20462;-55
2021/08/02 00:24:22;;;;;;;28.97;19.53;;;;;;;;;;5095452;28;20448;-58
2021/08/02 00:26:50;;;;;;;34.23;23.80;;;;;;;;;;5096499;28;20803;-58
2021/08/02 00:29:17;;;;;;;27.60;18.80;;;;;;;;;;5096662;28;20449;-56
2021/08/02 00:31:49;;;;;;;13.03;8.93;;;;;;;;;;5096740;28;20462;-57
2021/08/02 00:34:16;;;;;;;14.47;8.37;;;;;;;;;;5096938;28;20458;-54
2021/08/02 00:36:45;;;;;;;10.90;8.03;;;;;;;;;;5096803;28;20491;-58
2021/08/02 00:39:19;;;;;;;11.07;7.70;;;;;;;;;;5097185;28;20450;-56
2021/08/02 00:42:05;;;;;;;9.90;8.50;;;;;;;;;;5076156;28;20458;-54
2021/08/02 00:47:40;;;;;;;13.50;10.67;;;;;;;;;;5076079;28;20449;-55
2021/08/02 00:50:09;;;;;;;12.30;9.00;;;;;;;;;;5075054;28;20529;-53
2021/08/02 00:52:41;;;;;;;10.67;8.47;;;;;;;;;;5074815;28;20462;-53
2021/08/02 00:55:09;;;;;;;30.13;13.13;;;;;;;;;;5075849;28;20453;-57
2021/08/02 00:57:37;;;;;;;15.90;8.53;;;;;;;;;;5076399;28;20444;-58
2021/08/02 01:00:12;;;;;;;11.83;8.20;;;;;;;;;;5076137;28;20458;-53
2021/08/02 01:02:42;;;;;;;9.70;8.30;;;;;;;;;;5075674;28;20493;-57
2021/08/02 01:05:10;;;;;;;13.00;8.57;;;;;;;;;;5075924;28;20504;-57
2021/08/02 01:07:39;;;;;;;9.67;8.67;;;;;;;;;;5075876;28;20467;-55
2021/08/02 01:10:08;;;;;;;10.17;8.40;;;;;;;;;;5075880;28;20477;-55
2021/08/02 01:12:41;;;;;;;12.60;8.83;;;;;;;;;;5075441;28;20456;-54
2021/08/02 01:15:09;;;;;;;14.53;9.80;;;;;;;;;;5075497;28;20545;-56
2021/08/02 01:17:36;;;;;;;12.43;10.13;;;;;;;;;;5080363;28;20472;-57
2021/08/02 01:20:06;;;;;;;10.20;8.90;;;;;;;;;;5096171;28;20446;-53
2021/08/02 01:22:36;;;;;;;17.73;10.33;;;;;;;;;;5095051;28;20457;-55
2021/08/02 01:25:24;;;;;;;14.03;8.63;;;;;;;;;;5095354;28;20498;-54
2021/08/02 01:28:13;;;;;;;9.20;8.07;;;;;;;;;;5094945;28;20464;-57
2021/08/02 01:30:52;;;;;;;11.10;9.30;;;;;;;;;;5095978;28;20423;-56
2021/08/02 01:33:20;;;;;;;10.83;8.23;;;;;;;;;;5095915;28;20449;-55
2021/08/02 01:35:48;;;;;;;10.77;8.60;;;;;;;;;;5094784;28;20531;-56
2021/08/02 01:41:20;;;;;;;11.53;10.20;;;;;;;;;;5095835;28;20539;-58
2021/08/02 01:43:47;;;;;;;10.70;9.07;;;;;;;;;;5095549;28;20458;-58
2021/08/02 01:46:21;;;;;;;10.70;8.70;;;;;;;;;;5094931;28;20520;-58
2021/08/02 01:48:53;;;;;;;10.33;8.50;;;;;;;;;;5095241;28;20468;-56
2021/08/02 01:51:22;;;;;;;16.03;9.47;;;;;;;;;;5091528;28;20440;-56
2021/08/02 01:53:52;;;;;;;9.90;8.43;;;;;;;;;;5095235;28;20568;-58
2021/08/02 01:56:22;;;;;;;16.13;9.90;;;;;;;;;;5093638;28;20442;-57
2021/08/02 01:58:55;;;;;;;14.43;9.47;;;;;;;;;;5095049;28;20534;-57
2021/08/02 02:01:24;;;;;;;9.13;7.83;;;;;;;;;;5087519;28;20547;-52
2021/08/02 02:03:52;;;;;;;13.13;8.40;;;;;;;;;;5095042;28;20460;-56
2021/08/02 02:06:33;;;;;;;13.60;9.80;;;;;;;;;;5094466;28;20478;-58
2021/08/02 02:09:03;;;;;;;8.63;7.70;;;;;;;;;;5094752;28;20441;-56
2021/08/02 02:11:32;;;;;;;8.93;7.60;;;;;;;;;;5092870;28;20435;-55
2021/08/02 02:14:03;;;;;;;10.23;8.67;;;;;;;;;;5095415;28;20448;-56
2021/08/02 02:16:31;;;;;;;11.80;8.77;;;;;;;;;;5094365;28;20471;-57
2021/08/02 02:19:01;;;;;;;19.73;10.17;;;;;;;;;;5094305;28;20462;-56
2021/08/02 02:21:55;;;;;;;12.33;9.37;;;;;;;;;;5094721;28;20481;-54
2021/08/02 02:24:22;;;;;;;10.03;7.50;;;;;;;;;;5093035;28;20499;-56
2021/08/02 02:26:52;;;;;;;10.00;8.40;;;;;;;;;;5093901;28;20495;-57
2021/08/02 02:29:20;;;;;;;9.97;8.80;;;;;;;;;;5094076;28;20462;-54
2021/08/02 02:31:49;;;;;;;9.53;8.40;;;;;;;;;;5094448;28;20691;-58
2021/08/02 02:34:20;;;;;;;8.60;7.17;;;;;;;;;;5095223;28;20437;-56
2021/08/02 02:36:47;;;;;;;10.73;9.17;;;;;;;;;;5094138;28;20518;-58
2021/08/02 02:39:15;;;;;;;12.70;9.33;;;;;;;;;;5093840;28;20471;-53
2021/08/02 02:41:43;;;;;;;11.90;8.63;;;;;;;;;;5094315;28;20883;-59
2021/08/02 02:44:12;;;;;;;11.67;8.97;;;;;;;;;;5094763;28;20461;-57
2021/08/02 02:46:39;;;;;;;10.53;9.10;;;;;;;;;;5094903;28;20523;-57
2021/08/02 02:49:15;;;;;;;10.83;8.50;;;;;;;;;;5095411;28;20449;-56
2021/08/02 02:51:42;;;;;;;16.37;9.67;;;;;;;;;;5094668;28;20563;-58
2021/08/02 02:54:10;;;;;;;12.80;9.70;;;;;;;;;;5077230;28;20469;-56
2021/08/02 02:56:38;;;;;;;14.03;9.77;;;;;;;;;;5094723;28;20473;-54
2021/08/02 02:59:07;;;;;;;11.47;9.83;;;;;;;;;;5094353;28;20440;-57
2021/08/02 03:01:43;;;;;;;12.00;8.57;;;;;;;;;;5094414;28;20455;-55
2021/08/02 03:04:30;;;;;;;10.70;9.20;;;;;;;;;;5095362;28;20489;-59
2021/08/02 03:07:00;;;;;;;11.03;8.60;;;;;;;;;;5082603;28;20496;-56
2021/08/02 03:09:29;;;;;;;10.60;9.03;;;;;;;;;;5098836;28;20616;-57
2021/08/02 03:11:56;;;;;;;14.40;10.00;;;;;;;;;;5098459;28;20528;-56
2021/08/02 03:14:48;;;;;;;13.07;9.53;;;;;;;;;;5098192;28;20479;-58
2021/08/02 03:17:16;;;;;;;13.30;9.07;;;;;;;;;;5090527;28;20470;-56
2021/08/02 03:19:44;;;;;;;10.00;8.80;;;;;;;;;;5078641;28;20439;-57
2021/08/02 03:22:46;;;;;;;13.53;9.20;;;;;;;;;;5078108;28;20455;-55
2021/08/02 03:25:16;;;;;;;12.57;9.57;;;;;;;;;;5078506;28;20481;-58
2021/08/02 03:27:46;;;;;;;13.63;8.70;;;;;;;;;;5078719;28;20453;-58
2021/08/02 03:30:35;;;;;;;13.90;9.83;;;;;;;;;;5078070;28;20458;-54
2021/08/02 03:33:05;;;;;;;10.00;8.33;;;;;;;;;;5078537;28;20489;-59
2021/08/02 03:35:33;;;;;;;14.83;9.13;;;;;;;;;;5078426;28;20504;-56
2021/08/02 03:38:16;;;;;;;15.37;8.60;;;;;;;;;;5089502;28;20445;-56
2021/08/02 03:40:48;;;;;;;11.70;8.40;;;;;;;;;;5098442;28;20453;-58
2021/08/02 03:43:17;;;;;;;11.13;8.50;;;;;;;;;;5098269;28;20454;-58
2021/08/02 03:45:44;;;;;;;8.93;7.80;;;;;;;;;;5098112;28;20511;-57
2021/08/02 03:48:15;;;;;;;11.97;9.27;;;;;;;;;;5098352;28;20444;-58
2021/08/02 03:50:44;;;;;;;8.73;6.87;;;;;;;;;;5098901;28;20493;-58
2021/08/02 03:53:21;;;;;;;16.50;8.57;;;;;;;;;;5099298;28;20456;-58
2021/08/02 03:55:50;;;;;;;14.20;8.57;;;;;;;;;;5098409;28;20460;-58
2021/08/02 03:58:30;;;;;;;12.80;7.27;;;;;;;;;;5097763;28;20446;-58
2021/08/02 04:00:58;;;;;;;9.20;7.30;;;;;;;;;;5097938;28;20462;-57
2021/08/02 04:03:26;;;;;;;13.67;9.50;;;;;;;;;;5098248;28;20451;-57
2021/08/02 04:05:54;;;;;;;13.00;9.30;;;;;;;;;;5098171;28;20467;-57
2021/08/02 04:08:23;;;;;;;10.57;8.33;;;;;;;;;;5098234;28;20456;-58
2021/08/02 04:10:54;;;;;;;9.90;7.70;;;;;;;;;;5098143;28;20443;-57
2021/08/02 04:13:31;;;;;;;11.10;7.70;;;;;;;;;;5097668;28;20455;-58
2021/08/02 04:16:00;;;;;;;13.20;7.50;;;;;;;;;;5098595;28;20492;-59
2021/08/02 04:18:29;;;;;;;12.27;7.83;;;;;;;;;;5097773;28;20457;-54
2021/08/02 04:20:57;;;;;;;10.70;8.27;;;;;;;;;;5080676;28;20457;-58
2021/08/02 04:23:24;;;;;;;14.50;8.60;;;;;;;;;;5097720;28;20475;-55
2021/08/02 04:25:52;;;;;;;12.03;8.47;;;;;;;;;;5097485;28;20474;-57
2021/08/02 04:31:23;;;;;;;13.67;8.47;;;;;;;;;;5098023;28;20423;-56
2021/08/02 04:33:53;;;;;;;11.20;8.57;;;;;;;;;;5098007;28;20462;-56
2021/08/02 04:36:27;;;;;;;14.63;8.43;;;;;;;;;;5096639;28;20450;-59
2021/08/02 04:38:55;;;;;;;12.80;7.77;;;;;;;;;;5096863;28;20454;-58
2021/08/02 04:41:24;;;;;;;12.60;8.17;;;;;;;;;;5096995;28;20473;-58
2021/08/02 04:43:58;;;;;;;15.73;9.60;;;;;;;;;;5096973;28;20446;-61
2021/08/02 04:46:27;;;;;;;12.83;8.40;;;;;;;;;;5079089;28;20775;-57
2021/08/02 04:48:55;;;;;;;13.93;8.30;;;;;;;;;;5092582;28;20470;-55
2021/08/02 04:51:52;;;;;;;14.00;7.67;;;;;;;;;;5092766;28;20468;-56
2021/08/02 04:54:21;;;;;;;19.47;8.87;;;;;;;;;;5096482;28;20484;-61
2021/08/02 04:56:49;;;;;;;14.10;7.90;;;;;;;;;;5095533;28;20453;-54
2021/08/02 05:02:20;;;;;;;10.20;7.23;;;;;;;;;;5097807;28;20539;-58
2021/08/02 05:04:56;;;;;;;9.90;7.13;;;;;;;;;;5099472;28;20488;-58
2021/08/02 05:07:36;;;;;;;7.57;6.63;;;;;;;;;;5097386;28;20493;-59
2021/08/02 05:10:04;;;;;;;12.20;7.37;;;;;;;;;;5095855;28;20467;-57
2021/08/02 05:12:52;;;;;;;10.13;7.33;;;;;;;;;;5095599;28;20449;-58
2021/08/02 05:15:20;;;;;;;15.27;7.40;;;;;;;;;;5095381;28;20472;-57
2021/08/02 05:17:48;;;;;;;11.23;6.37;;;;;;;;;;5084191;28;20447;-58
2021/08/02 05:20:37;;;;;;;9.90;7.77;;;;;;;;;;5093749;28;20467;-54
2021/08/02 05:23:07;;;;;;;10.40;6.23;;;;;;;;;;5095157;28;20458;-57
2021/08/02 05:25:35;;;;;;;9.73;7.60;;;;;;;;;;5094952;28;20451;-58
2021/08/02 05:28:06;;;;;;;8.63;6.70;;;;;;;;;;5092602;28;20451;-58
2021/08/02 05:31:25;;;;;;;12.00;6.90;;;;;;;;;;5089597;28;20461;-59
2021/08/02 05:37:13;;;;;;;12.90;7.13;;;;;;;;;;5099571;28;20475;-59
2021/08/02 05:39:42;;;;;;;7.23;5.40;;;;;;;;;;5115571;28;20452;-57
2021/08/02 05:42:24;;;;;;;7.70;6.07;;;;;;;;;;5114472;28;20456;-57
2021/08/02 05:44:51;;;;;;;9.23;7.47;;;;;;;;;;5114764;28;20452;-58
2021/08/02 05:47:19;;;;;;;8.97;6.40;;;;;;;;;;5115663;28;20478;-58
2021/08/02 05:50:10;;;;;;;8.30;6.00;;;;;;;;;;5098120;28;20469;-59
2021/08/02 05:52:37;;;;;;;10.40;8.37;;;;;;;;;;5115732;28;20484;-58
2021/08/02 05:55:07;;;;;;;15.90;10.50;;;;;;;;;;5115461;28;20509;-59
2021/08/02 05:57:34;;;;;;;9.23;6.80;;;;;;;;;;5115446;28;20492;-58
2021/08/02 06:00:02;;;;;;;13.33;6.80;;;;;;;;;;5114024;28;20445;-56
2021/08/02 06:02:48;;;;;;;11.57;6.27;;;;;;;;;;5095038;28;20427;-59
2021/08/02 06:05:17;;;;;;;6.70;5.43;;;;;;;;;;5099022;28;20460;-58
2021/08/02 06:07:45;;;;;;;10.33;6.57;;;;;;;;;;5115838;28;20553;-57
2021/08/02 06:10:14;;;;;;;11.03;7.07;;;;;;;;;;5115938;28;20437;-59
2021/08/02 06:12:44;;;;;;;10.80;6.73;;;;;;;;;;5115277;28;20495;-59
2021/08/02 06:20:41;;;;;;;15.83;7.87;;;;;;;;;;5114559;28;20474;-59
2021/08/02 06:23:10;;;;;;;8.63;6.37;;;;;;;;;;5115558;28;20216;-57
2021/08/02 06:25:39;;;;;;;12.03;6.83;;;;;;;;;;5114862;28;20501;-60
2021/08/02 06:28:14;;;;;;;9.33;6.90;;;;;;;;;;5107490;28;20476;-57
2021/08/02 06:31:00;;;;;;;10.10;7.20;;;;;;;;;;5107909;28;20454;-60
2021/08/02 06:33:29;;;;;;;41.30;11.60;;;;;;;;;;5101929;28;20459;-59
2021/08/02 06:36:23;;;;;;;18.43;9.83;;;;;;;;;;5098816;28;20510;-61
2021/08/02 06:38:51;;;;;;;13.93;8.90;;;;;;;;;;5097062;28;20454;-60
2021/08/02 06:41:23;;;;;;;10.20;7.10;;;;;;;;;;5103894;28;20460;-57
2021/08/02 06:44:18;;;;;;;17.07;9.83;;;;;;;;;;5113824;28;20458;-59
2021/08/02 06:47:02;;;;;;;14.30;8.90;;;;;;;;;;5100191;28;20519;-58
2021/08/02 06:49:31;;;;;;;13.70;11.67;;;;;;;;;;5113661;28;20728;-58
2021/08/02 06:52:01;;;;;;;24.00;11.20;;;;;;;;;;5114260;28;20460;-59
2021/08/02 06:54:30;;;;;;;23.50;12.00;;;;;;;;;;5114311;28;20459;-55
2021/08/02 07:00:04;;;;;;;15.13;10.33;;;;;;;;;;5113835;28;20409;-57
2021/08/02 07:02:32;;;;;;;15.13;8.23;;;;;;;;;;5114071;28;20452;-57
2021/08/02 07:05:37;;;;;;;13.03;8.40;;;;;;;;;;5113799;28;20455;-59
2021/08/02 07:08:04;;;;;;;12.67;9.23;;;;;;;;;;5110681;28;20495;-59
2021/08/02 07:10:40;;;;;;;15.27;8.77;;;;;;;;;;5113490;28;20687;-59
2021/08/02 07:13:18;;;;;;;16.43;11.77;;;;;;;;;;5114701;28;20491;-58
2021/08/02 07:15:50;;;;;;;13.03;9.63;;;;;;;;;;5094982;28;20484;-59
2021/08/02 07:18:21;;;;;;;15.13;8.97;;;;;;;;;;5113538;28;20496;-60
2021/08/02 07:20:51;;;;;;;11.23;9.07;;;;;;;;;;5113832;28;20447;-59
2021/08/02 07:23:20;;;;;;;14.40;8.77;;;;;;;;;;5092650;28;20646;-60
2021/08/02 07:25:49;;;;;;;13.40;9.13;;;;;;;;;;5093530;28;20438;-57
2021/08/02 07:28:17;;;;;;;11.93;8.73;;;;;;;;;;5112824;28;20501;-58
2021/08/02 07:30:44;;;;;;;12.73;8.50;;;;;;;;;;5110982;28;20460;-60
2021/08/02 07:33:22;;;;;;;13.43;7.67;;;;;;;;;;5093451;28;20469;-59
2021/08/02 07:35:49;;;;;;;16.63;8.60;;;;;;;;;;5108454;28;20504;-59
2021/08/02 07:38:17;;;;;;;16.47;12.60;;;;;;;;;;5113448;28;20474;-58
2021/08/02 07:40:47;;;;;;;16.60;8.77;;;;;;;;;;5112926;28;20440;-58
2021/08/02 07:43:14;;;;;;;10.77;6.73;;;;;;;;;;5111958;28;20452;-59
2021/08/02 07:45:41;;;;;;;14.50;7.40;;;;;;;;;;5112367;28;20434;-58
2021/08/02 07:48:10;;;;;;;19.30;8.20;;;;;;;;;;5112538;28;20514;-59
2021/08/02 07:50:39;;;;;;;13.93;7.90;;;;;;;;;;5112244;28;20460;-57
2021/08/02 07:53:07;;;;;;;21.07;8.90;;;;;;;;;;5112566;28;20497;-57
2021/08/02 07:55:34;;;;;;;13.07;6.73;;;;;;;;;;5115958;28;20488;-57
2021/08/02 07:58:22;;;;;;;13.40;7.10;;;;;;;;;;5116465;28;20444;-58
2021/08/02 08:03:56;;;;;;;10.47;6.33;;;;;;;;;;5116622;28;20434;-60
2021/08/02 08:06:24;;;;;;;13.33;7.77;;;;;;;;;;5117715;28;20434;-57
2021/08/02 08:09:08;;;;;;;14.20;7.70;;;;;;;;;;5117160;28;20450;-60
2021/08/02 08:11:35;;;;;;;11.77;7.40;;;;;;;;;;5114207;28;20508;-58
2021/08/02 08:14:03;;;;;;;11.43;7.20;;;;;;;;;;5117018;28;20845;-57
2021/08/02 08:16:44;;;;;;;14.20;7.20;;;;;;;;;;5117177;28;20462;-60
2021/08/02 08:19:18;;;;;;;11.73;7.87;;;;;;;;;;5117031;28;20447;-57
2021/08/02 08:21:47;;;;;;;11.20;7.20;;;;;;;;;;5116189;28;20434;-59
2021/08/02 08:24:33;;;;;;;15.70;8.43;;;;;;;;;;5116313;28;20504;-59
2021/08/02 08:27:00;;;;;;;15.50;8.50;;;;;;;;;;5115219;28;20552;-59
2021/08/02 08:29:31;;;;;;;16.77;8.23;;;;;;;;;;5115538;28;20513;-58
2021/08/02 08:32:35;;;;;;;15.50;8.90;;;;;;;;;;5116555;28;20454;-59
2021/08/02 08:35:02;;;;;;;11.50;7.90;;;;;;;;;;5095488;28;20933;-56
2021/08/02 08:37:31;;;;;;;21.77;8.87;;;;;;;;;;5097612;28;20478;-56
2021/08/02 08:40:17;;;;;;;32.77;9.90;;;;;;;;;;5096463;28;20456;-59
2021/08/02 08:42:47;;;;;;;12.43;7.80;;;;;;;;;;5094399;28;20526;-58
2021/08/02 08:45:19;;;;;;;16.13;7.77;;;;;;;;;;5096194;28;20444;-55
2021/08/02 08:47:48;;;;;;;17.33;7.40;;;;;;;;;;5064804;28;20797;-59
2021/08/02 08:50:16;;;;;;;12.93;8.20;;;;;;;;;;5075943;28;20445;-57
2021/08/02 08:52:51;;;;;;;12.27;8.17;;;;;;;;;;5076163;28;20441;-58
2021/08/02 08:55:19;;;;;;;12.93;8.00;;;;;;;;;;5075857;28;20532;-57
2021/08/02 08:57:46;;;;;;;13.53;7.17;;;;;;;;;;5080821;28;20491;-58
2021/08/02 09:00:33;;;;;;;21.33;7.77;;;;;;;;;;5090946;28;20444;-58
2021/08/02 09:03:09;;;;;;;21.40;8.57;;;;;;;;;;5090848;28;20456;-56
2021/08/02 09:05:37;;;;;;;19.93;8.90;;;;;;;;;;5088294;28;20463;-56
2021/08/02 09:08:07;;;;;;;16.80;10.00;;;;;;;;;;5095682;28;20541;-59
2021/08/02 09:10:35;;;;;;;13.00;8.47;;;;;;;;;;5082726;28;20445;-58
2021/08/02 09:13:03;;;;;;;21.77;9.03;;;;;;;;;;5075186;28;20440;-58
2021/08/02 09:15:37;;;;;;;12.03;8.43;;;;;;;;;;5095066;28;20464;-56
2021/08/02 09:18:06;;;;;;;16.20;7.53;;;;;;;;;;5094204;28;20634;-58
2021/08/02 09:20:35;;;;;;;16.43;8.70;;;;;;;;;;5094401;28;20523;-59
2021/08/02 09:26:08;;;;;;;16.77;8.93;;;;;;;;;;5093737;28;20473;-59
2021/08/02 09:28:35;;;;;;;10.00;5.30;;;;;;;;;;5095201;28;20553;-59
2021/08/02 09:31:04;;;;;;;7.10;4.73;;;;;;;;;;5108514;28;20455;-58
2021/08/02 09:33:34;;;;;;;11.27;5.83;;;;;;;;;;5114974;28;20435;-57
2021/08/02 09:36:07;;;;;;;10.57;5.00;;;;;;;;;;5095889;28;20705;-59
2021/08/02 09:38:34;;;;;;;10.33;5.13;;;;;;;;;;5095154;28;20511;-58
2021/08/02 09:41:02;;;;;;;12.07;5.03;;;;;;;;;;5094062;28;20444;-59
2021/08/02 09:43:33;;;;;;;7.03;4.37;;;;;;;;;;5077336;28;20473;-60
2021/08/02 09:46:01;;;;;;;10.97;4.40;;;;;;;;;;5093298;28;20629;-54
2021/08/02 09:48:35;;;;;;;11.53;6.37;;;;;;;;;;5094995;28;20513;-58
2021/08/02 09:51:14;;;;;;;11.93;4.90;;;;;;;;;;5095570;28;20439;-58
2021/08/02 09:53:43;;;;;;;9.23;4.33;;;;;;;;;;5095890;28;20436;-59
2021/08/02 09:56:12;;;;;;;7.30;3.87;;;;;;;;;;5095319;28;20456;-57
2021/08/02 09:58:47;;;;;;;7.23;4.50;;;;;;;;;;5076579;28;20536;-59
2021/08/02 10:01:14;;;;;;;8.10;5.53;;;;;;;;;;5075545;28;20479;-57
2021/08/02 10:03:42;;;;;;;11.63;6.00;;;;;;;;;;5075482;28;20452;-58
2021/08/02 10:06:12;;;;;;;10.20;4.87;;;;;;;;;;5082278;28;20723;-58
2021/08/02 10:08:43;;;;;;;12.90;5.97;;;;;;;;;;5096056;28;20519;-57
2021/08/02 10:11:12;;;;;;;12.97;5.23;;;;;;;;;;5094929;28;20543;-60
2021/08/02 10:14:10;;;;;;;8.87;5.30;;;;;;;;;;5095000;28;20456;-58
2021/08/02 10:16:42;;;;;;;9.80;4.23;;;;;;;;;;5110088;28;20475;-59
2021/08/02 10:19:10;;;;;;;10.80;5.10;;;;;;;;;;5116780;28;20532;-59
2021/08/02 10:24:48;;;;;;;7.10;4.77;;;;;;;;;;5116707;28;20489;-60
2021/08/02 10:27:25;;;;;;;12.77;4.50;;;;;;;;;;5115058;28;20463;-59
2021/08/02 10:33:02;;;;;;;9.33;4.83;;;;;;;;;;5110874;28;20450;-57
2021/08/02 10:35:34;;;;;;;8.30;4.57;;;;;;;;;;5114981;28;20469;-58
2021/08/02 10:38:13;;;;;;;10.53;6.90;;;;;;;;;;5114579;28;20442;-58
2021/08/02 10:40:50;;;;;;;9.63;4.90;;;;;;;;;;5116101;28;20443;-57
2021/08/02 10:43:28;;;;;;;7.40;3.87;;;;;;;;;;5115545;28;20455;-58
2021/08/02 10:45:56;;;;;;;8.60;5.23;;;;;;;;;;5115649;28;20465;-59
2021/08/02 10:48:36;;;;;;;6.97;4.57;;;;;;;;;;5115127;28;20470;-59
2021/08/02 10:51:18;;;;;;;8.23;4.17;;;;;;;;;;5106190;28;20473;-59
2021/08/02 10:53:58;;;;;;;10.27;5.00;;;;;;;;;;5095505;28;20542;-61
2021/08/02 10:56:34;;;;;;;9.73;4.70;;;;;;;;;;5095306;28;20452;-58
2021/08/02 10:59:02;;;;;;;16.40;6.27;;;;;;;;;;5095703;28;20503;-59
2021/08/02 11:01:30;;;;;;;7.10;4.07;;;;;;;;;;5106244;28;20507;-58
2021/08/02 11:04:11;;;;;;;8.90;4.67;;;;;;;;;;5114645;28;20444;-59
2021/08/02 11:06:39;;;;;;;7.60;4.00;;;;;;;;;;5114715;28;20451;-58
2021/08/02 11:09:13;;;;;;;7.13;3.70;;;;;;;;;;5115441;28;20487;-57
2021/08/02 11:11:46;;;;;;;9.73;5.20;;;;;;;;;;5127628;28;20462;-59
2021/08/02 11:14:15;;;;;;;9.70;4.93;;;;;;;;;;5094092;28;20479;-58
2021/08/02 11:16:44;;;;;;;13.80;4.90;;;;;;;;;;5093895;28;20447;-59
2021/08/02 11:19:23;;;;;;;9.43;5.40;;;;;;;;;;5094096;28;20460;-56
2021/08/02 11:22:04;;;;;;;10.13;4.67;;;;;;;;;;5094700;28;20516;-59
2021/08/02 11:27:50;;;;;;;6.30;3.67;;;;;;;;;;5093250;28;20467;-60
2021/08/02 11:30:24;;;;;;;10.10;3.90;;;;;;;;;;5098956;28;20424;-55
2021/08/02 11:32:56;;;;;;;8.90;4.90;;;;;;;;;;5097757;28;20555;-60
2021/08/02 11:35:35;;;;;;;10.13;3.33;;;;;;;;;;5080669;28;20444;-58
2021/08/02 11:38:35;;;;;;;7.70;4.20;;;;;;;;;;5098051;28;20451;-57
2021/08/02 11:41:07;;;;;;;7.70;4.17;;;;;;;;;;5077839;28;20479;-56
2021/08/02 11:43:40;;;;;;;5.27;2.70;;;;;;;;;;5077516;28;20467;-59
2021/08/02 11:46:08;;;;;;;6.50;3.10;;;;;;;;;;5078605;28;20471;-59
2021/08/02 11:48:35;;;;;;;5.00;3.47;;;;;;;;;;5078503;28;20476;-58
2021/08/02 11:51:40;;;;;;;5.73;2.87;;;;;;;;;;5078139;28;20437;-58
2021/08/02 11:54:18;;;;;;;8.40;4.03;;;;;;;;;;5067631;28;20456;-58
2021/08/02 11:57:04;;;;;;;9.73;3.60;;;;;;;;;;5077862;28;20468;-59
2021/08/02 11:59:34;;;;;;;6.40;3.40;;;;;;;;;;5072339;28;20447;-58
2021/08/02 12:02:03;;;;;;;6.50;2.63;;;;;;;;;;5063333;28;20511;-59
2021/08/02 12:04:42;;;;;;;5.53;3.10;;;;;;;;;;5060004;28;20452;-58
2021/08/02 12:07:10;;;;;;;9.87;2.87;;;;;;;;;;5075525;28;20480;-58
2021/08/02 12:09:40;;;;;;;6.10;3.10;;;;;;;;;;5065220;28;20556;-58
2021/08/02 12:12:39;;;;;;;4.67;2.70;;;;;;;;;;5078059;28;20542;-59
2021/08/02 12:15:28;;;;;;;4.40;2.80;;;;;;;;;;5068387;28;20441;-59
2021/08/02 12:17:58;;;;;;;8.67;2.30;;;;;;;;;;5077391;28;20463;-59
2021/08/02 12:20:35;;;;;;;6.43;3.27;;;;;;;;;;5070397;28;20446;-59
2021/08/02 12:23:07;;;;;;;6.10;2.67;;;;;;;;;;5058206;28;20509;-59
2021/08/02 12:25:44;;;;;;;6.97;2.97;;;;;;;;;;5058007;28;20449;-59
2021/08/02 12:31:16;;;;;;;6.50;3.73;;;;;;;;;;5112378;28;20505;-58
2021/08/02 12:33:49;;;;;;;5.83;3.60;;;;;;;;;;5118037;28;20436;-59
2021/08/02 12:36:34;;;;;;;4.80;3.07;;;;;;;;;;5117976;28;20443;-59
2021/08/02 12:42:08;;;;;;;8.53;3.60;;;;;;;;;;5117010;28;20425;-57
2021/08/02 12:44:45;;;;;;;9.80;3.50;;;;;;;;;;5130842;28;20477;-59
2021/08/02 12:47:35;;;;;;;6.43;3.90;;;;;;;;;;5112853;28;20562;-60
2021/08/02 12:50:04;;;;;;;9.03;4.60;;;;;;;;;;5116716;28;20513;-60
2021/08/02 12:52:49;;;;;;;5.40;3.57;;;;;;;;;;5117619;28;20428;-59
2021/08/02 12:55:17;;;;;;;7.00;4.30;;;;;;;;;;5117942;28;20443;-58
2021/08/02 12:57:50;;;;;;;6.70;4.23;;;;;;;;;;5117984;28;20484;-59
2021/08/02 13:00:23;;;;;;;7.47;4.47;;;;;;;;;;5111874;28;20456;-59
2021/08/02 13:03:04;;;;;;;7.80;5.20;;;;;;;;;;5097643;28;20451;-59
2021/08/02 13:08:45;;;;;;;8.33;6.10;;;;;;;;;;5110280;28;20498;-59
2021/08/02 13:11:21;;;;;;;8.00;5.90;;;;;;;;;;5117845;28;20467;-59
2021/08/02 13:14:34;;;;;;;7.33;5.17;;;;;;;;;;5117162;28;20494;-59
2021/08/02 13:20:45;;;;;;;8.10;4.90;;;;;;;;;;5125207;28;20435;-59
2021/08/02 13:28:47;;;;;;;8.43;3.87;;;;;;;;;;5116369;28;20534;-58
2021/08/02 13:31:42;;;;;;;5.50;4.23;;;;;;;;;;5117533;28;20440;-57
2021/08/02 13:34:10;;;;;;;7.70;4.97;;;;;;;;;;5115668;28;20459;-55
2021/08/02 13:36:40;;;;;;;7.73;4.83;;;;;;;;;;5116577;28;20531;-56
2021/08/02 13:42:33;;;;;;;9.73;5.17;;;;;;;;;;5114676;28;20570;-57
2021/08/02 13:48:07;;;;;;;6.30;4.40;;;;;;;;;;5100492;28;20422;-59
2021/08/02 13:50:36;;;;;;;7.93;4.23;;;;;;;;;;5117205;28;20435;-56
2021/08/02 13:59:05;;;;;;;6.50;3.57;;;;;;;;;;5116014;28;20447;-54
2021/08/02 14:07:37;;;;;;;7.23;5.53;;;;;;;;;;5115869;28;20474;-58
2021/08/02 14:10:06;;;;;;;5.60;3.30;;;;;;;;;;5116268;28;20483;-58
2021/08/02 14:12:42;;;;;;;5.47;2.93;;;;;;;;;;5118115;28;20475;-59
2021/08/02 14:15:14;;;;;;;5.77;3.30;;;;;;;;;;5116247;28;20454;-60
2021/08/02 14:23:58;;;;;;;7.77;4.77;;;;;;;;;;5108246;28;20489;-61
2021/08/02 14:26:27;;;;;;;6.07;3.30;;;;;;;;;;5115854;28;20443;-59
2021/08/02 14:32:17;;;;;;;8.20;4.53;;;;;;;;;;5116510;28;20441;-59
2021/08/02 14:37:52;;;;;;;6.33;2.90;;;;;;;;;;5117581;28;20737;-60
2021/08/02 14:40:29;;;;;;;6.73;2.73;;;;;;;;;;5135653;28;20458;-59
2021/08/02 14:43:00;;;;;;;6.97;3.60;;;;;;;;;;5097943;28;20502;-59
2021/08/02 14:45:32;;;;;;;6.33;3.40;;;;;;;;;;5095302;28;20443;-60
2021/08/02 14:48:13;;;;;;;6.10;3.27;;;;;;;;;;5093817;28;20497;-58
2021/08/02 14:50:44;;;;;;;3.37;2.00;;;;;;;;;;5075530;28;20472;-59
2021/08/02 14:53:19;;;;;;;4.13;3.20;;;;;;;;;;5082956;28;20452;-62
2021/08/02 14:55:46;;;;;;;6.23;3.27;;;;;;;;;;5095212;28;20474;-58
2021/08/02 14:58:31;;;;;;;5.90;3.10;;;;;;;;;;5094740;28;20452;-59
2021/08/02 15:01:08;;;;;;;6.87;3.27;;;;;;;;;;5094061;28;20467;-58
2021/08/02 15:04:02;;;;;;;4.67;2.93;;;;;;;;;;5096106;28;20497;-59
2021/08/02 15:06:48;;;;;;;11.10;4.20;;;;;;;;;;5098828;28;20496;-58
2021/08/02 15:09:29;;;;;;;6.57;3.20;;;;;;;;;;5099064;28;20489;-58
2021/08/02 15:11:58;;;;;;;12.33;3.20;;;;;;;;;;5099225;28;20439;-58
2021/08/02 15:14:26;;;;;;;4.20;2.37;;;;;;;;;;5099419;28;20456;-56
2021/08/02 15:16:57;;;;;;;5.90;3.47;;;;;;;;;;5099860;28;20444;-58
2021/08/02 15:19:33;;;;;;;4.17;2.40;;;;;;;;;;5097631;28;20578;-56
2021/08/02 15:22:10;;;;;;;8.23;2.50;;;;;;;;;;5099800;28;20513;-58
2021/08/02 15:25:08;;;;;;;5.00;1.90;;;;;;;;;;5114944;28;20458;-59
2021/08/02 15:27:42;;;;;;;15.40;7.20;;;;;;;;;;5109692;28;20469;-60
2021/08/02 15:30:15;;;;;;;8.50;4.80;;;;;;;;;;5119267;28;20528;-61
2021/08/02 15:33:09;;;;;;;9.40;4.17;;;;;;;;;;5115225;28;20463;-59
2021/08/02 15:35:37;;;;;;;5.80;3.70;;;;;;;;;;5098542;28;20519;-60
2021/08/02 15:38:11;;;;;;;5.93;3.50;;;;;;;;;;5090825;28;20468;-56
2021/08/02 15:41:16;;;;;;;5.60;2.90;;;;;;;;;;5079349;28;20452;-58
2021/08/02 15:43:48;;;;;;;5.30;2.30;;;;;;;;;;5102787;28;20471;-55
2021/08/02 15:46:19;;;;;;;4.30;2.37;;;;;;;;;;5109435;28;20425;-56
2021/08/02 15:48:46;;;;;;;5.03;2.40;;;;;;;;;;5098978;28;20487;-60
2021/08/02 15:51:40;;;;;;;5.20;2.93;;;;;;;;;;5086706;28;20445;-60
2021/08/02 15:54:24;;;;;;;5.20;2.93;;;;;;;;;;5077428;28;20448;-60
2021/08/02 15:56:55;;;;;;;4.70;2.37;;;;;;;;;;5093602;28;20560;-59
2021/08/02 15:59:53;;;;;;;5.37;2.17;;;;;;;;;;5099428;28;20447;-57
2021/08/02 16:02:33;;;;;;;5.07;2.63;;;;;;;;;;5088421;28;20449;-57
2021/08/02 16:05:19;;;;;;;9.23;2.63;;;;;;;;;;5098044;28;20447;-55
2021/08/02 16:07:48;;;;;;;5.57;3.20;;;;;;;;;;5098269;28;20455;-57
2021/08/02 16:10:20;;;;;;;5.70;2.63;;;;;;;;;;5098198;28;20547;-59
2021/08/02 16:13:18;;;;;;;6.37;2.63;;;;;;;;;;5098770;28;20429;-56
2021/08/02 16:15:46;;;;;;;6.53;3.20;;;;;;;;;;5097523;28;20442;-60
2021/08/02 16:18:31;;;;;;;4.77;3.50;;;;;;;;;;5097942;28;20447;-59
2021/08/02 16:21:05;;;;;;;5.23;3.20;;;;;;;;;;5096280;28;20456;-59
2021/08/02 16:26:23;;;;;;;6.87;3.50;;;;;;;;;;5118658;28;20435;-58
2021/08/02 16:28:58;;;;;;;6.97;3.50;;;;;;;;;;5118571;28;20461;-57
2021/08/02 16:31:28;;;;;;;7.80;3.47;;;;;;;;;;5100305;28;20470;-59
2021/08/02 16:33:58;;;;;;;8.93;3.90;;;;;;;;;;5097623;28;20785;-59
2021/08/02 16:42:25;;;;;;;8.90;3.90;;;;;;;;;;5095608;28;20482;-59
2021/08/02 16:45:04;;;;;;;6.73;4.40;;;;;;;;;;5080391;28;20443;-56
2021/08/02 16:47:52;;;;;;;9.10;4.87;;;;;;;;;;5110463;28;20466;-59
2021/08/02 16:50:21;;;;;;;6.43;4.23;;;;;;;;;;5081923;28;20534;-58